ADDS METAR Data INFO
IDs: Format: Raw Decoded Include TAF

Data at: 0405 UTC 11 Dec 2017

K1A9 110355Z AUTO 00000KT 10SM CLR M02/M02 A3029 RMK AO2 T10161017
K1A9 110335Z AUTO 00000KT 10SM CLR M02/M02 A3030 RMK AO2 T10161018
K1A9 110315Z AUTO 00000KT 10SM CLR M01/M01 A3030 RMK AO2 T10141015
K1A9 110255Z AUTO 00000KT 10SM CLR M01/M01 A3029 RMK AO2 T10111015
K1A9 110235Z AUTO 00000KT 10SM CLR M01/M01 A3030 RMK AO2 T10101014
K1A9 110215Z AUTO 00000KT 10SM CLR M01/M01 A3029 RMK AO2 T10101012
K1A9 110155Z AUTO 00000KT 10SM CLR M01/M01 A3030 RMK AO2 T10101013
K1A9 110135Z AUTO 00000KT 10SM CLR M01/M01 A3030 RMK AO2 T10081014
K1A9 110115Z AUTO 00000KT 10SM CLR 00/00 A3030 RMK AO2 T00001005
K1A9 110055Z AUTO 00000KT 10SM CLR 00/00 A3030 RMK AO2 T00031004
K1A9 110035Z AUTO 27003KT 10SM CLR 01/00 A3029 RMK AO2 T00061003
K1A9 110020Z AUTO 00000KT 10SM CLR 01/00 A3029 RMK AO2 T00100000
K1A9 102355Z AUTO 00000KT 10SM CLR 02/00 A3029 RMK AO2 T00180000 10088 20017
K1A9 102335Z AUTO 00000KT 10SM CLR 02/00 A3029 RMK AO2 T00210000
K1A9 102315Z AUTO 00000KT 10SM CLR 03/00 A3028 RMK AO2 T00341002
K1A9 102255Z AUTO 00000KT 10SM CLR 06/M01 A3028 RMK AO2 T00561012
K1A9 102235Z AUTO 00000KT 10SM CLR 07/M03 A3028 RMK AO2 T00741027
K1A9 102215Z AUTO 26004KT 10SM CLR 08/M03 A3028 RMK AO2 T00811028
K1A9 102155Z AUTO 26004KT 10SM CLR 09/M03 A3028 RMK AO2 T00851027
K1A9 102135Z AUTO 25006KT 10SM CLR 09/M03 A3028 RMK AO2 T00861026
K1A9 102115Z AUTO 24005KT 10SM CLR 09/M02 A3029 RMK AO2 T00851024
K1A9 102055Z AUTO 25006KT 10SM CLR 09/M03 A3029 RMK AO2 T00851030
K1A9 102035Z AUTO 25004KT 10SM CLR 09/M03 A3030 RMK AO2 T00861029
K1A9 102015Z AUTO 28004KT 10SM CLR 08/M03 A3030 RMK AO2 T00841028
K1A9 101955Z AUTO 23004KT 10SM CLR 08/M03 A3029 RMK AO2 T00801026
K1A9 101935Z AUTO 25004KT 10SM CLR 08/M03 A3030 RMK AO2 T00771033
K1A9 101915Z AUTO 25006KT 10SM CLR 08/M03 A3032 RMK AO2 T00771028
K1A9 101855Z AUTO 27005KT 10SM CLR 07/M03 A3032 RMK AO2 T00721029
K1A9 101835Z AUTO 26003KT 10SM CLR 07/M03 A3033 RMK AO2 T00701034
K1A9 101815Z AUTO 26006KT 10SM CLR 07/M03 A3034 RMK AO2 T00691033
K1A9 101755Z AUTO 24003KT 10SM CLR 07/M03 A3035 RMK AO2 T00681026 10068 21048
K1A9 101735Z AUTO 27006KT 10SM CLR 06/M03 A3037 RMK AO2 T00621027
K1A9 101715Z AUTO 27005KT 10SM CLR 06/M02 A3038 RMK AO2 T00571023
K1A9 101655Z AUTO 24004KT 10SM CLR 05/M02 A3038 RMK AO2 T00541022
K1A9 101635Z AUTO 25003KT 10SM CLR 05/M03 A3038 RMK AO2 T00481026
K1A9 101615Z AUTO 27004KT 10SM CLR 04/M04 A3039 RMK AO2 T00401042
K1A9 101555Z AUTO 27004KT 10SM CLR 04/M04 A3039 RMK AO2 T00361038
K1A9 101535Z AUTO 27003KT 10SM CLR 03/M03 A3038 RMK AO2 T00331035
K1A9 101515Z AUTO 27004KT 10SM CLR 02/M02 A3038 RMK AO2 T00241024
K1A9 101455Z AUTO 25004KT 10SM CLR 02/M02 A3038 RMK AO2 T00191018
K1A9 101435Z AUTO 00000KT 10SM CLR 01/00 A3037 RMK AO2 T00061003
K1A9 101415Z AUTO 00000KT 10SM CLR M01/M02 A3036 RMK AO2 T10061020
K1A9 101355Z AUTO 00000KT 10SM CLR M02/M02 A3036 RMK AO2 T10171022
K1A9 101335Z AUTO 00000KT 10SM CLR M03/M03 A3035 RMK AO2 T10301032
K1A9 101315Z AUTO 00000KT 10SM CLR M04/M04 A3035 RMK AO2 T10401043
K1A9 101255Z AUTO 00000KT 10SM CLR M05/M05 A3034 RMK AO2 T10461049
K1A9 101235Z AUTO 00000KT 10SM CLR M04/M05 A3034 RMK AO2 T10451048
K1A9 101215Z AUTO 00000KT 10SM CLR M05/M05 A3033 RMK AO2 T10461050
K1A9 101155Z AUTO 00000KT 10SM CLR M04/M04 A3034 RMK AO2 T10411044 10005 21042
K1A9 101135Z AUTO 00000KT 10SM CLR M04/M04 A3033 RMK AO2 T10401042
K1A9 101115Z AUTO 00000KT 10SM CLR M04/M04 A3033 RMK AO2 T10361040
K1A9 101055Z AUTO 00000KT 10SM CLR M04/M04 A3032 RMK AO2 T10381040
K1A9 101035Z AUTO 00000KT 10SM CLR M04/M04 A3032 RMK AO2 T10371037
K1A9 101015Z AUTO 00000KT 10SM CLR M04/M04 A3032 RMK AO2 T10361037
K1A9 100955Z AUTO 00000KT 10SM CLR M03/M03 A3032 RMK AO2 T10301031
K1A9 100935Z AUTO 00000KT 10SM CLR M03/M03 A3031 RMK AO2 T10321034
K1A9 100915Z AUTO 00000KT 10SM CLR M03/M03 A3032 RMK AO2 T10301031
K1A9 100855Z AUTO 00000KT 10SM CLR M03/M03 A3031 RMK AO2 T10281030
K1A9 100835Z AUTO 00000KT 10SM CLR M03/M03 A3031 RMK AO2 T10271030
K1A9 100815Z AUTO 00000KT 10SM CLR M02/M03 A3030 RMK AO2 T10251030
K1A9 100755Z AUTO 00000KT 10SM CLR M02/M02 A3029 RMK AO2 T10201022
K1A9 100735Z AUTO 00000KT 10SM CLR M01/M03 A3028 RMK AO2 T10121027
K1A9 100715Z AUTO 00000KT 10SM CLR 00/M02 A3028 RMK AO2 T00001024
K1A9 100655Z AUTO 35003KT 10SM CLR 00/M02 A3027 RMK AO2 T00001025
K1A9 100635Z AUTO 33004KT 10SM CLR 00/M02 A3027 RMK AO2 T00031021
K1A9 100615Z AUTO 31004KT 10SM CLR 01/M02 A3026 RMK AO2 T00051017
K1A9 100555Z AUTO 31004KT 10SM CLR 00/M02 A3026 RMK AO2 T00011016 10003 21020 400511020
K1A9 100535Z AUTO 29003KT 10SM CLR M01/M02 A3025 RMK AO2 T10071017
K1A9 100515Z AUTO 00000KT 10SM CLR M01/M01 A3024 RMK AO2 T10131014
K1A9 100455Z AUTO 00000KT 10SM CLR M01/M02 A3024 RMK AO2 T10151024
K1A9 100435Z AUTO 28003KT 10SM CLR 00/00 A3024 RMK AO2 T00001005
K1A9 100415Z AUTO 00000KT 10SM CLR M02/M02 A3023 RMK AO2 T10171019
K1A9 100355Z AUTO 00000KT 10SM CLR M02/M02 A3022 RMK AO2 T10191022
K1A9 100335Z AUTO 00000KT 10SM CLR M02/M02 A3020 RMK AO2 T10201020
K1A9 100315Z AUTO 00000KT 10SM CLR M02/M02 A3019 RMK AO2 T10181019
K1A9 100255Z AUTO 00000KT 10SM CLR M02/M02 A3019 RMK AO2 T10161016
K1A9 100235Z AUTO 00000KT 10SM CLR M01/M01 A3019 RMK AO2 T10121012
K1A9 100215Z AUTO 00000KT 10SM CLR M01/M01 A3018 RMK AO2 T10131014
K1A9 100155Z AUTO 00000KT 10SM CLR M01/M01 A3017 RMK AO2 T10131013
K1A9 100135Z AUTO 00000KT 10SM CLR M01/M01 A3017 RMK AO2 T10141014
K1A9 100115Z AUTO 00000KT 10SM CLR M01/M01 A3016 RMK AO2 T10111011
K1A9 100055Z AUTO 00000KT 10SM CLR M01/M01 A3016 RMK AO2 T10131013
K1A9 100035Z AUTO 00000KT 10SM CLR M01/M01 A3015 RMK AO2 T10081009
K1A9 100015Z AUTO 00000KT 10SM CLR 00/M01 A3014 RMK AO2 T10051007
K1A9 092355Z AUTO 00000KT 10SM CLR 00/00 A3013 RMK AO2 T10011005 10051 21001
K1A9 092335Z AUTO 00000KT 10SM CLR 00/00 A3013 RMK AO2 T00010000
K1A9 092315Z AUTO 00000KT 10SM CLR 01/00 A3011 RMK AO2 T00140000
K1A9 092255Z AUTO 00000KT 10SM CLR 03/M01 A3010 RMK AO2 T00321008
K1A9 092235Z AUTO 00000KT 10SM CLR 04/M01 A3009 RMK AO2 T00381013
K1A9 092215Z AUTO 26004KT 10SM CLR 04/M01 A3009 RMK AO2 T00441012
K1A9 092155Z AUTO 26005KT 10SM CLR 05/M02 A3008 RMK AO2 T00461016
K1A9 092135Z AUTO 24008KT 10SM CLR 05/M02 A3007 RMK AO2 T00481017
K1A9 092115Z AUTO 25008KT 10SM CLR 05/M01 A3006 RMK AO2 T00491015
K1A9 092055Z AUTO 23004KT 10SM CLR 05/M01 A3005 RMK AO2 T00491014
K1A9 092035Z AUTO 27005KT 10SM CLR 05/M02 A3006 RMK AO2 T00461018
K1A9 092015Z AUTO 26008KT 10SM CLR 05/M01 A3007 RMK AO2 T00461013
K1A9 091955Z AUTO 25008KT 10SM CLR 04/M02 A3008 RMK AO2 T00411016
K1A9 091935Z AUTO 26009KT 10SM CLR 04/M01 A3008 RMK AO2 T00411014
K1A9 091915Z AUTO 25007KT 10SM CLR 04/M02 A3007 RMK AO2 T00381016
K1A9 091855Z AUTO 24006KT 10SM CLR 03/M02 A3008 RMK AO2 T00331018
K1A9 091835Z AUTO 27007KT 10SM CLR 03/M02 A3009 RMK AO2 T00311019
K1A9 091815Z AUTO 25005KT 10SM CLR 03/M01 A3010 RMK AO2 T00301011
K1A9 091755Z AUTO 25007KT 10SM CLR 02/M02 A3011 RMK AO2 T00241016 10025 21015
K1A9 091735Z AUTO 25008KT 10SM CLR 02/M01 A3011 RMK AO2 T00221013
K1A9 091715Z AUTO 28006KT 10SM CLR 02/M01 A3011 RMK AO2 T00221008
K1A9 091655Z AUTO 30007KT 10SM CLR 02/M02 A3011 RMK AO2 T00151017
K1A9 091635Z AUTO 26006KT 10SM CLR 01/M01 A3010 RMK AO2 T00131012
K1A9 091615Z AUTO 27005KT 10SM CLR 01/M01 A3010 RMK AO2 T00081011